Time;durP1;ratioP1;P1;durP2;ratioP2;P2;SDS_P1;SDS_P2;PMS_P1;PMS_P2;Temp;Humidity;BMP_temperature;BMP_pressure;BME280_temperature;BME280_humidity;BME280_pressure;Samples;Min_cycle;Max_cycle;Signal;HPM_P1;HPM_P2
2022/11/06 00:00:50;;;;;;;;;;;;;;;;;;5002604;28;1180;-68
2022/11/06 00:03:16;;;;;;;;;;;;;;;;;;5000398;28;4631;-67
2022/11/06 00:08:44;;;;;;;;;;;;;;;;;;5001532;28;5047;-68
2022/11/06 00:11:17;;;;;;;;;;;;;;;;;;4987519;28;5146;-67
2022/11/06 00:16:45;;;;;;;;;;;;;;;;;;5001408;28;5155;-68
2022/11/06 00:22:15;;;;;;;;;;;;;;;;;;5000925;28;5062;-68
2022/11/06 00:27:43;;;;;;;;;;;;;;;;;;5001864;28;4545;-68
2022/11/06 00:30:10;;;;;;;;;;;;;;;;;;5000562;28;5074;-68
2022/11/06 00:35:38;;;;;;;;;;;;;;;;;;5001626;28;5340;-68
2022/11/06 00:38:05;;;;;;;;;;;;;;;;;;4996028;28;5116;-68
2022/11/06 00:40:30;;;;;;;;;;;;;;;;;;4996875;28;5732;-68
2022/11/06 00:42:55;;;;;;;;;;;;;;;;;;4996010;28;5115;-69
2022/11/06 00:45:21;;;;;;;;;;;;;;;;;;4978487;28;1178;-68
2022/11/06 00:47:46;;;;;;;;;;;;;;;;;;4994601;28;4652;-68
2022/11/06 00:50:11;;;;;;;;;;;;;;;;;;4995949;28;5130;-68
2022/11/06 00:52:36;;;;;;;;;;;;;;;;;;4998549;28;5256;-69
2022/11/06 00:55:02;;;;;;;;;;;;;;;;;;4995253;28;4665;-68
2022/11/06 00:57:27;;;;;;;;;;;;;;;;;;4979568;28;1198;-68
2022/11/06 00:59:52;;;;;;;;;;;;;;;;;;4995720;28;5572;-68
2022/11/06 01:02:18;;;;;;;;;;;;;;;;;;4995630;28;4485;-68
2022/11/06 01:04:43;;;;;;;;;;;;;;;;;;4975866;28;4516;-67
2022/11/06 01:07:08;;;;;;;;;;;;;;;;;;4981100;28;4540;-68
2022/11/06 01:09:34;;;;;;;;;;;;;;;;;;4993826;28;1975;-68
2022/11/06 01:11:59;;;;;;;;;;;;;;;;;;4994224;28;5088;-68
2022/11/06 01:23:32;;;;;;;;;;;;;;;;;;4997506;28;4444;-68
2022/11/06 01:38:07;;;;;;;;;;;;;;;;;;4997419;28;5052;-67
2022/11/06 01:40:38;;;;;;;;;;;;;;;;;;4997179;28;4488;-67
2022/11/06 01:49:13;;;;;;;;;;;;;;;;;;4996810;28;5046;-67
2022/11/06 01:51:46;;;;;;;;;;;;;;;;;;4996940;28;1914;-68
2022/11/06 01:57:14;;;;;;;;;;;;;;;;;;4997216;28;4593;-68
2022/11/06 02:02:42;;;;;;;;;;;;;;;;;;4997202;28;5024;-67
2022/11/06 02:08:11;;;;;;;;;;;;;;;;;;4996554;28;5143;-67
2022/11/06 02:10:36;;;;;;;;;;;;;;;;;;4997302;28;4536;-68
2022/11/06 02:16:41;;;;;;;;;;;;;;;;;;5014948;28;5093;-68
2022/11/06 02:19:23;;;;;;;;;;;;;;;;;;5015653;28;4959;-68
2022/11/06 02:21:51;;;;;;;;;;;;;;;;;;5015302;28;1078;-68
2022/11/06 02:24:29;;;;;;;;;;;;;;;;;;5014761;28;4998;-68
2022/11/06 02:33:04;;;;;;;;;;;;;;;;;;5016285;28;4886;-67
2022/11/06 02:38:53;;;;;;;;;;;;;;;;;;5016284;28;4457;-68
2022/11/06 02:53:35;;;;;;;;;;;;;;;;;;5015553;28;5174;-68
2022/11/06 02:56:01;;;;;;;;;;;;;;;;;;5013197;28;4706;-68
2022/11/06 03:01:32;;;;;;;;;;;;;;;;;;5015670;28;4615;-68
2022/11/06 03:07:04;;;;;;;;;;;;;;;;;;5014979;28;5070;-68
2022/11/06 03:12:42;;;;;;;;;;;;;;;;;;5008452;28;4928;-68
2022/11/06 03:15:32;;;;;;;;;;;;;;;;;;4994646;28;4656;-68
2022/11/06 03:21:12;;;;;;;;;;;;;;;;;;4993309;28;4591;-68
2022/11/06 03:23:40;;;;;;;;;;;;;;;;;;4974848;28;5422;-69
2022/11/06 03:29:09;;;;;;;;;;;;;;;;;;4975796;28;4745;-69
2022/11/06 03:31:57;;;;;;;;;;;;;;;;;;4975345;28;4502;-68
2022/11/06 03:34:25;;;;;;;;;;;;;;;;;;4975316;28;5099;-68
2022/11/06 03:39:54;;;;;;;;;;;;;;;;;;4975951;28;5078;-68
2022/11/06 03:42:51;;;;;;;;;;;;;;;;;;4974556;28;1163;-67
2022/11/06 03:45:18;;;;;;;;;;;;;;;;;;4974419;28;4629;-68
2022/11/06 03:50:47;;;;;;;;;;;;;;;;;;4975445;28;5125;-68
2022/11/06 03:53:14;;;;;;;;;;;;;;;;;;4973948;28;4633;-67
2022/11/06 03:58:43;;;;;;;;;;;;;;;;;;4975362;28;5094;-67
2022/11/06 04:01:08;;;;;;;;;;;;;;;;;;4973558;28;4657;-68
2022/11/06 04:06:43;;;;;;;;;;;;;;;;;;4976515;28;4726;-67
2022/11/06 04:14:44;;;;;;;;;;;;;;;;;;4972627;28;4859;-67
2022/11/06 04:23:19;;;;;;;;;;;;;;;;;;4975154;28;4541;-67
2022/11/06 04:37:58;;;;;;;;;;;;;;;;;;4974972;28;5017;-68
2022/11/06 04:43:35;;;;;;;;;;;;;;;;;;4978660;28;5034;-69
2022/11/06 04:49:03;;;;;;;;;;;;;;;;;;4978305;28;5604;-69
2022/11/06 04:54:31;;;;;;;;;;;;;;;;;;4979329;28;4609;-68
2022/11/06 04:59:59;;;;;;;;;;;;;;;;;;4978219;28;4886;-69
2022/11/06 05:05:27;;;;;;;;;;;;;;;;;;4978315;28;4521;-68
2022/11/06 05:07:52;;;;;;;;;;;;;;;;;;4960662;28;5046;-68
2022/11/06 05:13:27;;;;;;;;;;;;;;;;;;4982143;28;4486;-69
2022/11/06 05:15:56;;;;;;;;;;;;;;;;;;4977558;28;5414;-68
2022/11/06 05:24:10;;;;;;;;;;;;;;;;;;4977791;28;5034;-68
2022/11/06 05:26:36;;;;;;;;;;;;;;;;;;4975424;28;5047;-68
2022/11/06 05:29:01;;;;;;;;;;;;;;;;;;4978237;28;5057;-68
2022/11/06 05:34:29;;;;;;;;;;;;;;;;;;4977876;28;5369;-68
2022/11/06 05:39:57;;;;;;;;;;;;;;;;;;4977799;28;5107;-68
2022/11/06 05:45:25;;;;;;;;;;;;;;;;;;4978430;28;4761;-68
2022/11/06 05:50:58;;;;;;;;;;;;;;;;;;4977058;28;5091;-68
2022/11/06 05:56:27;;;;;;;;;;;;;;;;;;4977803;28;5488;-68
2022/11/06 05:58:58;;;;;;;;;;;;;;;;;;4977240;28;4938;-68
2022/11/06 06:04:26;;;;;;;;;;;;;;;;;;4996541;28;5008;-68
2022/11/06 06:09:54;;;;;;;;;;;;;;;;;;4996541;28;5423;-68
2022/11/06 06:12:35;;;;;;;;;;;;;;;;;;4997064;28;1180;-68
2022/11/06 06:15:01;;;;;;;;;;;;;;;;;;5011249;28;4984;-69
2022/11/06 06:17:26;;;;;;;;;;;;;;;;;;5012799;28;4919;-68
2022/11/06 06:19:51;;;;;;;;;;;;;;;;;;5010595;28;5095;-68
2022/11/06 06:22:16;;;;;;;;;;;;;;;;;;5011074;28;5116;-69
2022/11/06 06:24:42;;;;;;;;;;;;;;;;;;4995402;28;1244;-68
2022/11/06 06:27:36;;;;;;;;;;;;;;;;;;5012323;28;4535;-69
2022/11/06 06:30:02;;;;;;;;;;;;;;;;;;5011577;28;4490;-70
2022/11/06 06:32:27;;;;;;;;;;;;;;;;;;5012181;28;4415;-69
2022/11/06 06:34:52;;;;;;;;;;;;;;;;;;5007385;28;4876;-69
2022/11/06 06:37:24;;;;;;;;;;;;;;;;;;4996222;28;5135;-69
2022/11/06 06:39:50;;;;;;;;;;;;;;;;;;4975343;28;1045;-69
2022/11/06 06:42:15;;;;;;;;;;;;;;;;;;4991705;28;4470;-69
2022/11/06 06:44:40;;;;;;;;;;;;;;;;;;4991322;28;4882;-69
2022/11/06 06:47:05;;;;;;;;;;;;;;;;;;4998599;28;5379;-68
2022/11/06 06:49:31;;;;;;;;;;;;;;;;;;5013283;28;4493;-69
2022/11/06 06:54:58;;;;;;;;;;;;;;;;;;5015092;28;5236;-68
2022/11/06 06:57:24;;;;;;;;;;;;;;;;;;5015358;28;1068;-68
2022/11/06 07:02:52;;;;;;;;;;;;;;;;;;5014666;28;4540;-69
2022/11/06 07:08:21;;;;;;;;;;;;;;;;;;5002409;28;4999;-69
2022/11/06 07:10:46;;;;;;;;;;;;;;;;;;5014598;28;5087;-69
2022/11/06 07:13:19;;;;;;;;;;;;;;;;;;5013738;28;5088;-69
2022/11/06 07:21:50;;;;;;;;;;;;;;;;;;4995484;28;658;-68
2022/11/06 07:27:18;;;;;;;;;;;;;;;;;;4995398;28;599;-68
2022/11/06 07:32:46;;;;;;;;;;;;;;;;;;4995546;28;634;-68
2022/11/06 07:35:11;;;;;;;;;;;;;;;;;;4995384;28;1116;-68
2022/11/06 07:40:39;;;;;;;;;;;;;;;;;;4995202;28;588;-69
2022/11/06 07:46:08;;;;;;;;;;;;;;;;;;4995131;28;631;-69
2022/11/06 07:54:26;;;;;;;;;;;;;;;;;;4976447;28;4639;-69
2022/11/06 07:59:54;;;;;;;;;;;;;;;;;;4975767;28;4673;-69
2022/11/06 08:05:22;;;;;;;;;;;;;;;;;;4975383;28;4959;-68
2022/11/06 08:07:47;;;;;;;;;;;;;;;;;;4984059;28;5086;-68
2022/11/06 08:13:16;;;;;;;;;;;;;;;;;;5017098;28;4979;-68
2022/11/06 08:18:44;;;;;;;;;;;;;;;;;;5018859;28;4520;-68
2022/11/06 08:24:12;;;;;;;;;;;;;;;;;;5017889;28;4784;-68
2022/11/06 08:29:40;;;;;;;;;;;;;;;;;;5017995;28;5118;-69
2022/11/06 08:32:05;;;;;;;;;;;;;;;;;;5017961;28;5082;-69
2022/11/06 08:37:33;;;;;;;;;;;;;;;;;;5017621;28;5099;-69
2022/11/06 08:43:02;;;;;;;;;;;;;;;;;;5017854;28;4987;-68
2022/11/06 08:48:29;;;;;;;;;;;;;;;;;;5018062;28;4585;-69
2022/11/06 08:50:55;;;;;;;;;;;;;;;;;;5017452;28;4944;-68
2022/11/06 08:56:23;;;;;;;;;;;;;;;;;;5017361;28;5142;-68
2022/11/06 09:01:50;;;;;;;;;;;;;;;;;;5017061;28;5219;-69
2022/11/06 09:04:16;;;;;;;;;;;;;;;;;;5017527;28;4994;-68
2022/11/06 09:09:44;;;;;;;;;;;;;;;;;;5018115;28;5328;-69
2022/11/06 09:15:21;;;;;;;;;;;;;;;;;;5021442;28;4723;-70
2022/11/06 09:20:52;;;;;;;;;;;;;;;;;;5016882;28;5077;-69
2022/11/06 09:26:20;;;;;;;;;;;;;;;;;;5016530;28;4949;-69
2022/11/06 09:28:46;;;;;;;;;;;;;;;;;;5016498;28;4485;-68
2022/11/06 09:34:14;;;;;;;;;;;;;;;;;;5016355;28;5100;-70
2022/11/06 09:39:42;;;;;;;;;;;;;;;;;;5017203;28;4719;-70
2022/11/06 09:45:13;;;;;;;;;;;;;;;;;;5017299;28;4436;-69
2022/11/06 09:47:40;;;;;;;;;;;;;;;;;;4998627;28;5318;-69
2022/11/06 09:50:06;;;;;;;;;;;;;;;;;;4997214;28;5102;-69
2022/11/06 09:55:34;;;;;;;;;;;;;;;;;;5016241;28;4974;-69
2022/11/06 10:01:14;;;;;;;;;;;;;;;;;;5001522;28;5129;-69
2022/11/06 10:06:57;;;;;;;;;;;;;;;;;;4977989;28;4694;-69
2022/11/06 10:12:43;;;;;;;;;;;;;;;;;;4977399;28;4615;-70
2022/11/06 10:18:26;;;;;;;;;;;;;;;;;;4977066;28;5050;-70
2022/11/06 10:21:04;;;;;;;;;;;;;;;;;;4976495;28;4451;-69
2022/11/06 10:26:37;;;;;;;;;;;;;;;;;;4976432;28;5054;-69
2022/11/06 10:32:21;;;;;;;;;;;;;;;;;;4976544;28;5297;-68
2022/11/06 10:37:49;;;;;;;;;;;;;;;;;;4975361;28;5232;-69
2022/11/06 10:40:16;;;;;;;;;;;;;;;;;;4976173;28;4640;-68
2022/11/06 10:52:09;;;;;;;;;;;;;;;;;;4995364;28;1963;-66
2022/11/06 10:57:42;;;;;;;;;;;;;;;;;;4996204;28;4732;-66
2022/11/06 11:00:11;;;;;;;;;;;;;;;;;;4995244;28;4993;-67
2022/11/06 11:05:40;;;;;;;;;;;;;;;;;;4995757;28;4591;-66
2022/11/06 11:08:05;;;;;;;;;;;;;;;;;;4999765;28;4833;-65
2022/11/06 11:13:33;;;;;;;;;;;;;;;;;;5014973;28;4948;-66
2022/11/06 11:15:59;;;;;;;;;;;;;;;;;;5032999;28;4486;-66
2022/11/06 11:21:27;;;;;;;;;;;;;;;;;;5035326;28;4565;-69
2022/11/06 11:23:58;;;;;;;;;;;;;;;;;;5034238;28;4906;-64
2022/11/06 11:29:28;;;;;;;;;;;;;;;;;;5034440;28;4588;-68
2022/11/06 11:31:54;;;;;;;;;;;;;;;;;;5016284;28;4537;-67
2022/11/06 11:37:28;;;;;;;;;;;;;;;;;;5033862;28;4509;-68
2022/11/06 11:43:14;;;;;;;;;;;;;;;;;;5033679;28;4987;-68
2022/11/06 11:45:40;;;;;;;;;;;;;;;;;;5033988;28;1053;-68
2022/11/06 11:51:13;;;;;;;;;;;;;;;;;;5033853;28;4577;-68
2022/11/06 11:53:39;;;;;;;;;;;;;;;;;;5033266;28;5253;-68
2022/11/06 11:59:11;;;;;;;;;;;;;;;;;;5033788;28;5036;-70
2022/11/06 12:04:40;;;;;;;;;;;;;;;;;;5033940;28;5241;-70
2022/11/06 12:10:26;;;;;;;;;;;;;;;;;;5033828;28;5166;-70
2022/11/06 12:19:17;;;;;;;;;;;;;;;;;;5014693;28;4549;-71
2022/11/06 12:21:43;;;;;;;;;;;;;;;;;;5014326;28;1128;-70
2022/11/06 12:27:30;;;;;;;;;;;;;;;;;;5014435;28;4933;-70
2022/11/06 12:30:03;;;;;;;;;;;;;;;;;;5013461;28;5026;-70
2022/11/06 12:35:32;;;;;;;;;;;;;;;;;;5013607;28;5094;-71
2022/11/06 12:44:02;;;;;;;;;;;;;;;;;;4994325;28;5214;-72
2022/11/06 12:49:34;;;;;;;;;;;;;;;;;;4994207;28;5012;-72
2022/11/06 12:55:08;;;;;;;;;;;;;;;;;;4993673;28;5093;-72
2022/11/06 13:03:30;;;;;;;;;;;;;;;;;;5022538;23;2351;-62
2022/11/06 13:05:59;;;;;;;;;;;;;;;;;;4988647;28;4480;-62
2022/11/06 13:08:31;;;;;;;;;;;;;;;;;;4955323;28;5115;-61
2022/11/06 13:10:56;;;;;;;;;;;;;;;;;;4979842;28;5260;-62
2022/11/06 13:13:21;;;;;;;;;;;;;;;;;;4979190;28;5045;-61
2022/11/06 13:16:05;;;;;;;;;;;;;;;;;;4979217;28;1952;-62
2022/11/06 13:18:34;;;;;;;;;;;;;;;;;;4971523;28;5146;-62
2022/11/06 13:21:05;;;;;;;;;;;;;;;;;;4981581;28;5002;-62
2022/11/06 13:23:34;;;;;;;;;;;;;;;;;;4972056;28;5570;-61
2022/11/06 13:26:00;;;;;;;;;;;;;;;;;;4971735;28;4498;-60
2022/11/06 13:28:28;;;;;;;;;;;;;;;;;;4974513;28;6274;-61
2022/11/06 13:30:53;;;;;;;;;;;;;;;;;;4985784;28;4478;-62
2022/11/06 13:33:18;;;;;;;;;;;;;;;;;;4984612;28;1595;-62
2022/11/06 13:35:44;;;;;;;;;;;;;;;;;;4988293;28;5567;-62
2022/11/06 13:38:17;;;;;;;;;;;;;;;;;;4980516;28;4660;-61
2022/11/06 13:40:43;;;;;;;;;;;;;;;;;;4973937;28;5040;-61
2022/11/06 13:43:18;;;;;;;;;;;;;;;;;;4979443;28;5100;-62
2022/11/06 13:45:46;;;;;;;;;;;;;;;;;;4989657;28;1893;-61
2022/11/06 13:48:14;;;;;;;;;;;;;;;;;;4993467;28;4443;-62
2022/11/06 13:50:43;;;;;;;;;;;;;;;;;;4987736;28;4851;-62
2022/11/06 13:53:11;;;;;;;;;;;;;;;;;;4985800;28;4496;-62
2022/11/06 13:55:36;;;;;;;;;;;;;;;;;;4980925;28;5170;-62
2022/11/06 13:58:05;;;;;;;;;;;;;;;;;;4984228;28;4465;-62
2022/11/06 14:00:36;;;;;;;;;;;;;;;;;;4988781;28;1868;-62
2022/11/06 14:03:10;;;;;;;;;;;;;;;;;;4970661;28;5030;-62
2022/11/06 14:05:38;;;;;;;;;;;;;;;;;;4982756;28;5253;-62
2022/11/06 14:08:04;;;;;;;;;;;;;;;;;;4982281;28;4476;-62
2022/11/06 14:10:33;;;;;;;;;;;;;;;;;;4981028;28;4654;-62
2022/11/06 14:12:58;;;;;;;;;;;;;;;;;;4968957;28;5068;-62
2022/11/06 14:15:29;;;;;;;;;;;;;;;;;;4972834;28;1238;-61
2022/11/06 14:17:55;;;;;;;;;;;;;;;;;;4969653;28;4985;-63
2022/11/06 14:20:28;;;;;;;;;;;;;;;;;;4984481;28;5021;-62
2022/11/06 14:22:53;;;;;;;;;;;;;;;;;;4985859;28;5736;-62
2022/11/06 14:25:28;;;;;;;;;;;;;;;;;;4986675;28;4796;-62
2022/11/06 14:27:53;;;;;;;;;;;;;;;;;;4976660;28;6185;-62
2022/11/06 14:30:27;;;;;;;;;;;;;;;;;;4982235;28;1965;-61
2022/11/06 14:32:56;;;;;;;;;;;;;;;;;;4985269;28;4740;-61
2022/11/06 14:35:33;;;;;;;;;;;;;;;;;;4979642;28;5300;-62
2022/11/06 14:38:08;;;;;;;;;;;;;;;;;;4985245;28;5103;-62
2022/11/06 14:40:33;;;;;;;;;;;;;;;;;;4983186;28;4700;-61
2022/11/06 14:42:58;;;;;;;;;;;;;;;;;;4981346;28;4828;-61
2022/11/06 14:45:23;;;;;;;;;;;;;;;;;;4987405;28;1508;-61
2022/11/06 14:47:55;;;;;;;;;;;;;;;;;;4974882;28;5137;-61
2022/11/06 14:50:28;;;;;;;;;;;;;;;;;;4970411;28;4740;-61
2022/11/06 14:53:12;;;;;;;;;;;;;;;;;;4982312;28;5240;-62
2022/11/06 14:55:57;;;;;;;;;;;;;;;;;;4982022;28;4913;-61
2022/11/06 14:58:27;;;;;;;;;;;;;;;;;;4973164;28;4935;-62
2022/11/06 15:00:55;;;;;;;;;;;;;;;;;;4968757;28;4932;-62
2022/11/06 15:03:22;;;;;;;;;;;;;;;;;;4986150;28;1355;-62
2022/11/06 15:05:47;;;;;;;;;;;;;;;;;;4986608;28;4601;-62
2022/11/06 15:08:13;;;;;;;;;;;;;;;;;;5006508;28;4571;-62
2022/11/06 15:10:44;;;;;;;;;;;;;;;;;;4988913;28;5192;-62
2022/11/06 15:13:16;;;;;;;;;;;;;;;;;;5004703;28;5188;-61
2022/11/06 15:15:44;;;;;;;;;;;;;;;;;;5005313;28;1845;-61
2022/11/06 15:18:10;;;;;;;;;;;;;;;;;;5005832;28;4472;-60
2022/11/06 15:20:35;;;;;;;;;;;;;;;;;;4987296;28;4900;-61
2022/11/06 15:23:14;;;;;;;;;;;;;;;;;;4973679;28;5767;-61
2022/11/06 15:25:44;;;;;;;;;;;;;;;;;;4987339;28;4540;-62
2022/11/06 15:28:22;;;;;;;;;;;;;;;;;;4993771;28;5098;-61
2022/11/06 15:30:59;;;;;;;;;;;;;;;;;;4985825;28;1931;-59
2022/11/06 15:33:31;;;;;;;;;;;;;;;;;;5008057;28;4411;-62
2022/11/06 15:36:00;;;;;;;;;;;;;;;;;;5003787;28;5016;-61
2022/11/06 15:38:34;;;;;;;;;;;;;;;;;;4991176;28;5376;-61
2022/11/06 15:40:59;;;;;;;;;;;;;;;;;;4994326;28;5469;-61
2022/11/06 15:43:27;;;;;;;;;;;;;;;;;;5004338;28;4909;-61
2022/11/06 15:46:05;;;;;;;;;;;;;;;;;;5003327;28;4891;-61
2022/11/06 15:48:30;;;;;;;;;;;;;;;;;;5005038;28;1804;-60
2022/11/06 15:50:56;;;;;;;;;;;;;;;;;;4994891;28;4532;-60
2022/11/06 15:53:22;;;;;;;;;;;;;;;;;;4993933;28;4970;-61
2022/11/06 15:55:52;;;;;;;;;;;;;;;;;;4990830;28;4492;-62
2022/11/06 15:58:17;;;;;;;;;;;;;;;;;;4987749;28;4923;-61
2022/11/06 16:00:43;;;;;;;;;;;;;;;;;;5004496;28;1896;-61
2022/11/06 16:03:09;;;;;;;;;;;;;;;;;;4989705;28;4616;-61
2022/11/06 16:05:35;;;;;;;;;;;;;;;;;;4988942;28;5033;-62
2022/11/06 16:08:01;;;;;;;;;;;;;;;;;;5001332;28;4985;-62
2022/11/06 16:10:26;;;;;;;;;;;;;;;;;;4983379;28;5602;-62
2022/11/06 16:12:52;;;;;;;;;;;;;;;;;;5006756;28;1852;-59
2022/11/06 16:15:36;;;;;;;;;;;;;;;;;;4996802;28;4416;-62
2022/11/06 16:18:05;;;;;;;;;;;;;;;;;;5005374;28;4624;-62
2022/11/06 16:20:30;;;;;;;;;;;;;;;;;;5005950;28;5153;-60
2022/11/06 16:22:55;;;;;;;;;;;;;;;;;;5004883;28;5041;-62
2022/11/06 16:25:21;;;;;;;;;;;;;;;;;;5006265;28;5046;-60
2022/11/06 16:27:46;;;;;;;;;;;;;;;;;;5003664;28;4581;-60
2022/11/06 16:30:21;;;;;;;;;;;;;;;;;;5002800;28;5162;-61
2022/11/06 16:32:46;;;;;;;;;;;;;;;;;;5005761;28;4619;-59
2022/11/06 16:35:30;;;;;;;;;;;;;;;;;;5003983;28;5176;-60
2022/11/06 16:37:56;;;;;;;;;;;;;;;;;;5002913;28;4804;-62
2022/11/06 16:40:45;;;;;;;;;;;;;;;;;;4989525;28;4501;-60
2022/11/06 16:43:13;;;;;;;;;;;;;;;;;;4998418;28;5137;-60
2022/11/06 16:45:58;;;;;;;;;;;;;;;;;;5008497;28;2110;-59
2022/11/06 16:48:34;;;;;;;;;;;;;;;;;;5006913;28;4640;-53
2022/11/06 16:51:03;;;;;;;;;;;;;;;;;;5007339;28;4896;-57
2022/11/06 16:53:29;;;;;;;;;;;;;;;;;;5007069;28;5214;-57
2022/11/06 16:55:54;;;;;;;;;;;;;;;;;;5002151;28;5097;-57
2022/11/06 16:58:21;;;;;;;;;;;;;;;;;;5004950;28;5305;-57
2022/11/06 17:00:46;;;;;;;;;;;;;;;;;;5001813;28;1352;-56
2022/11/06 17:03:18;;;;;;;;;;;;;;;;;;4973105;28;4653;-57
2022/11/06 17:05:50;;;;;;;;;;;;;;;;;;5003888;28;4481;-57
2022/11/06 17:08:35;;;;;;;;;;;;;;;;;;5000895;28;4567;-58
2022/11/06 17:11:12;;;;;;;;;;;;;;;;;;5005523;28;5078;-58
2022/11/06 17:13:37;;;;;;;;;;;;;;;;;;5001955;28;4638;-57
2022/11/06 17:16:03;;;;;;;;;;;;;;;;;;4994123;28;4792;-57
2022/11/06 17:18:29;;;;;;;;;;;;;;;;;;5004177;28;1429;-57
2022/11/06 17:20:56;;;;;;;;;;;;;;;;;;5003524;28;4861;-56
2022/11/06 17:23:22;;;;;;;;;;;;;;;;;;5008883;28;4566;-56
2022/11/06 17:25:47;;;;;;;;;;;;;;;;;;4988879;28;5004;-59
2022/11/06 17:28:13;;;;;;;;;;;;;;;;;;5008803;28;5037;-57
2022/11/06 17:30:38;;;;;;;;;;;;;;;;;;5014768;28;1977;-56
2022/11/06 17:33:04;;;;;;;;;;;;;;;;;;5013638;28;5212;-57
2022/11/06 17:35:29;;;;;;;;;;;;;;;;;;5010185;28;4636;-57
2022/11/06 17:37:54;;;;;;;;;;;;;;;;;;5017223;28;5252;-57
2022/11/06 17:40:19;;;;;;;;;;;;;;;;;;5011089;28;4785;-58
2022/11/06 17:42:45;;;;;;;;;;;;;;;;;;5002171;28;1955;-57
2022/11/06 17:45:10;;;;;;;;;;;;;;;;;;5012340;28;4457;-57
2022/11/06 17:47:35;;;;;;;;;;;;;;;;;;5006116;28;4493;-57
2022/11/06 17:50:00;;;;;;;;;;;;;;;;;;5010238;28;4962;-58
2022/11/06 17:52:29;;;;;;;;;;;;;;;;;;4998846;28;4600;-56
2022/11/06 17:54:55;;;;;;;;;;;;;;;;;;4968727;28;4909;-56
2022/11/06 17:57:20;;;;;;;;;;;;;;;;;;5009207;28;1407;-57
2022/11/06 17:59:46;;;;;;;;;;;;;;;;;;5012379;28;5135;-56
2022/11/06 18:02:15;;;;;;;;;;;;;;;;;;5008879;28;5089;-55
2022/11/06 18:04:40;;;;;;;;;;;;;;;;;;5001520;28;5144;-56
2022/11/06 18:07:05;;;;;;;;;;;;;;;;;;5003788;28;5093;-54
2022/11/06 18:09:30;;;;;;;;;;;;;;;;;;5007494;28;1472;-55
2022/11/06 18:11:56;;;;;;;;;;;;;;;;;;5006699;28;5034;-56
2022/11/06 18:14:21;;;;;;;;;;;;;;;;;;5007177;28;5104;-57
2022/11/06 18:16:47;;;;;;;;;;;;;;;;;;5009420;28;4648;-58
2022/11/06 18:19:14;;;;;;;;;;;;;;;;;;5007356;28;5066;-57
2022/11/06 18:21:39;;;;;;;;;;;;;;;;;;5013257;28;1843;-58
2022/11/06 18:24:05;;;;;;;;;;;;;;;;;;4995190;28;4642;-57
2022/11/06 18:26:30;;;;;;;;;;;;;;;;;;4976961;28;5552;-60
2022/11/06 18:28:55;;;;;;;;;;;;;;;;;;4997684;28;4856;-57
2022/11/06 18:31:22;;;;;;;;;;;;;;;;;;5010775;28;5245;-56
2022/11/06 18:33:47;;;;;;;;;;;;;;;;;;4997362;28;1011;-58
2022/11/06 18:36:13;;;;;;;;;;;;;;;;;;5008547;28;4522;-59
2022/11/06 18:38:38;;;;;;;;;;;;;;;;;;4975577;28;4513;-55
2022/11/06 18:41:07;;;;;;;;;;;;;;;;;;5004389;28;5029;-52
2022/11/06 18:43:32;;;;;;;;;;;;;;;;;;4989885;28;5213;-59
2022/11/06 18:46:01;;;;;;;;;;;;;;;;;;4974995;28;4857;-54
2022/11/06 18:48:26;;;;;;;;;;;;;;;;;;5002570;28;1091;-53
2022/11/06 18:50:52;;;;;;;;;;;;;;;;;;5009339;28;5327;-53
2022/11/06 18:53:18;;;;;;;;;;;;;;;;;;5009104;28;5041;-53
2022/11/06 18:55:44;;;;;;;;;;;;;;;;;;5000237;28;4609;-58
2022/11/06 18:58:10;;;;;;;;;;;;;;;;;;5007937;28;4917;-53
2022/11/06 19:00:36;;;;;;;;;;;;;;;;;;5010107;28;1423;-52
2022/11/06 19:03:02;;;;;;;;;;;;;;;;;;5007382;28;4875;-57
2022/11/06 19:05:28;;;;;;;;;;;;;;;;;;5008142;28;4555;-56
2022/11/06 19:07:53;;;;;;;;;;;;;;;;;;4995653;28;4632;-51
2022/11/06 19:10:18;;;;;;;;;;;;;;;;;;5009140;28;4578;-53
2022/11/06 19:12:43;;;;;;;;;;;;;;;;;;4990672;28;1321;-52
2022/11/06 19:15:09;;;;;;;;;;;;;;;;;;5004324;28;4676;-53
2022/11/06 19:17:34;;;;;;;;;;;;;;;;;;4994322;28;4872;-57
2022/11/06 19:19:59;;;;;;;;;;;;;;;;;;5013896;28;5123;-57
2022/11/06 19:22:24;;;;;;;;;;;;;;;;;;5009461;28;4603;-55
2022/11/06 19:24:50;;;;;;;;;;;;;;;;;;5007801;28;1931;-55
2022/11/06 19:27:15;;;;;;;;;;;;;;;;;;5008696;28;4993;-57
2022/11/06 19:29:41;;;;;;;;;;;;;;;;;;5006860;28;5248;-58
2022/11/06 19:32:06;;;;;;;;;;;;;;;;;;5003176;28;4471;-57
2022/11/06 19:34:31;;;;;;;;;;;;;;;;;;4988963;28;5058;-59
2022/11/06 19:36:56;;;;;;;;;;;;;;;;;;5003973;28;5132;-58
2022/11/06 19:39:23;;;;;;;;;;;;;;;;;;5005681;28;1778;-59
2022/11/06 19:41:48;;;;;;;;;;;;;;;;;;5004214;28;5156;-58
2022/11/06 19:44:13;;;;;;;;;;;;;;;;;;4990999;28;5032;-59
2022/11/06 19:46:39;;;;;;;;;;;;;;;;;;5005702;28;4973;-58
2022/11/06 19:49:04;;;;;;;;;;;;;;;;;;5006865;28;5114;-58
2022/11/06 19:51:30;;;;;;;;;;;;;;;;;;5003609;28;1974;-57
2022/11/06 19:53:55;;;;;;;;;;;;;;;;;;5006135;28;5154;-58
2022/11/06 19:56:21;;;;;;;;;;;;;;;;;;5006069;28;4681;-59
2022/11/06 19:58:48;;;;;;;;;;;;;;;;;;4976019;28;5146;-57
2022/11/06 20:01:14;;;;;;;;;;;;;;;;;;5005483;28;5099;-56
2022/11/06 20:03:39;;;;;;;;;;;;;;;;;;5008388;28;1763;-58
2022/11/06 20:06:04;;;;;;;;;;;;;;;;;;4999632;28;5087;-56
2022/11/06 20:08:30;;;;;;;;;;;;;;;;;;4986777;28;5649;-58
2022/11/06 20:11:05;;;;;;;;;;;;;;;;;;5001217;28;4931;-57
2022/11/06 20:13:35;;;;;;;;;;;;;;;;;;5010720;28;5541;-57
2022/11/06 20:16:02;;;;;;;;;;;;;;;;;;5006187;28;4532;-59
2022/11/06 20:18:28;;;;;;;;;;;;;;;;;;5010935;28;1090;-59
2022/11/06 20:20:53;;;;;;;;;;;;;;;;;;5007087;28;4700;-58
2022/11/06 20:23:18;;;;;;;;;;;;;;;;;;5002209;28;5040;-59
2022/11/06 20:25:44;;;;;;;;;;;;;;;;;;5008814;28;5140;-58
2022/11/06 20:28:09;;;;;;;;;;;;;;;;;;5010921;28;5161;-58
2022/11/06 20:30:34;;;;;;;;;;;;;;;;;;5010685;28;1914;-58
2022/11/06 20:32:59;;;;;;;;;;;;;;;;;;5010376;28;4837;-58
2022/11/06 20:35:25;;;;;;;;;;;;;;;;;;5005357;28;5045;-59
2022/11/06 20:37:50;;;;;;;;;;;;;;;;;;5005249;28;5561;-59
2022/11/06 20:40:15;;;;;;;;;;;;;;;;;;4998890;28;5021;-58
2022/11/06 20:42:41;;;;;;;;;;;;;;;;;;5014675;28;1404;-58
2022/11/06 20:45:07;;;;;;;;;;;;;;;;;;5010291;28;4420;-59
2022/11/06 20:47:32;;;;;;;;;;;;;;;;;;4983879;28;5046;-61
2022/11/06 20:49:57;;;;;;;;;;;;;;;;;;5011015;28;5180;-59
2022/11/06 20:52:23;;;;;;;;;;;;;;;;;;5008552;28;5151;-59
2022/11/06 20:54:49;;;;;;;;;;;;;;;;;;5011587;28;1841;-59
2022/11/06 20:57:14;;;;;;;;;;;;;;;;;;5010505;28;4831;-60
2022/11/06 20:59:40;;;;;;;;;;;;;;;;;;5011060;28;5284;-58
2022/11/06 21:02:05;;;;;;;;;;;;;;;;;;5008293;28;5347;-58
2022/11/06 21:04:30;;;;;;;;;;;;;;;;;;5008094;28;5029;-61
2022/11/06 21:06:55;;;;;;;;;;;;;;;;;;5006468;28;4988;-57
2022/11/06 21:09:22;;;;;;;;;;;;;;;;;;5002031;28;1162;-58
2022/11/06 21:11:47;;;;;;;;;;;;;;;;;;5013173;28;5022;-59
2022/11/06 21:14:13;;;;;;;;;;;;;;;;;;5010161;28;4548;-59
2022/11/06 21:16:38;;;;;;;;;;;;;;;;;;5013173;28;5008;-58
2022/11/06 21:19:04;;;;;;;;;;;;;;;;;;4995668;28;4581;-59
2022/11/06 21:21:31;;;;;;;;;;;;;;;;;;4990182;28;1311;-58
2022/11/06 21:23:57;;;;;;;;;;;;;;;;;;4993271;28;5427;-59
2022/11/06 21:26:26;;;;;;;;;;;;;;;;;;5010654;28;5062;-59
2022/11/06 21:28:51;;;;;;;;;;;;;;;;;;4991512;28;5075;-59
2022/11/06 21:31:17;;;;;;;;;;;;;;;;;;5013208;28;5138;-58
2022/11/06 21:33:43;;;;;;;;;;;;;;;;;;5010441;28;1098;-60
2022/11/06 21:36:09;;;;;;;;;;;;;;;;;;4991588;28;4495;-60
2022/11/06 21:38:35;;;;;;;;;;;;;;;;;;4997305;28;5007;-58
2022/11/06 21:41:03;;;;;;;;;;;;;;;;;;5010158;28;5143;-58
2022/11/06 21:43:28;;;;;;;;;;;;;;;;;;5009768;28;4661;-58
2022/11/06 21:45:54;;;;;;;;;;;;;;;;;;5009906;28;5162;-59
2022/11/06 21:48:19;;;;;;;;;;;;;;;;;;4987738;28;1138;-60
2022/11/06 21:50:44;;;;;;;;;;;;;;;;;;5008814;28;5010;-58
2022/11/06 21:55:59;;;;;;;;;;;;;;;;;;4995190;28;4905;-60
2022/11/06 21:58:25;;;;;;;;;;;;;;;;;;5009729;28;5015;-60
2022/11/06 22:00:50;;;;;;;;;;;;;;;;;;5010225;28;1144;-60
2022/11/06 22:03:15;;;;;;;;;;;;;;;;;;5000499;28;5034;-58
2022/11/06 22:05:41;;;;;;;;;;;;;;;;;;5009785;28;5023;-60
2022/11/06 22:08:07;;;;;;;;;;;;;;;;;;5000948;28;5001;-59
2022/11/06 22:10:33;;;;;;;;;;;;;;;;;;5008086;28;5207;-58
2022/11/06 22:12:58;;;;;;;;;;;;;;;;;;5008440;28;4959;-60
2022/11/06 22:15:24;;;;;;;;;;;;;;;;;;5008474;28;1104;-59
2022/11/06 22:17:49;;;;;;;;;;;;;;;;;;5001828;28;4443;-59
2022/11/06 22:20:14;;;;;;;;;;;;;;;;;;5008284;28;4494;-60
2022/11/06 22:22:40;;;;;;;;;;;;;;;;;;5008628;28;4597;-59
2022/11/06 22:25:05;;;;;;;;;;;;;;;;;;5008786;28;5295;-59
2022/11/06 22:27:30;;;;;;;;;;;;;;;;;;5010029;28;4661;-59
2022/11/06 22:29:56;;;;;;;;;;;;;;;;;;4986463;28;5052;-59
2022/11/06 22:32:22;;;;;;;;;;;;;;;;;;5004075;28;5037;-60
2022/11/06 22:34:47;;;;;;;;;;;;;;;;;;5009218;28;5159;-59
2022/11/06 22:37:12;;;;;;;;;;;;;;;;;;5005564;28;5067;-61
2022/11/06 22:39:38;;;;;;;;;;;;;;;;;;5010042;28;1110;-61
2022/11/06 22:42:03;;;;;;;;;;;;;;;;;;5009591;28;4586;-61
2022/11/06 22:44:32;;;;;;;;;;;;;;;;;;5010096;28;5430;-58
2022/11/06 22:46:57;;;;;;;;;;;;;;;;;;4992156;28;5012;-62
2022/11/06 22:49:22;;;;;;;;;;;;;;;;;;5010101;28;4794;-62
2022/11/06 22:51:48;;;;;;;;;;;;;;;;;;5009656;28;1977;-61
2022/11/06 22:54:13;;;;;;;;;;;;;;;;;;5009646;28;4942;-62
2022/11/06 22:56:38;;;;;;;;;;;;;;;;;;5001923;28;5151;-63
2022/11/06 22:59:06;;;;;;;;;;;;;;;;;;5008865;28;5139;-62
2022/11/06 23:01:31;;;;;;;;;;;;;;;;;;4992618;28;4971;-62
2022/11/06 23:04:00;;;;;;;;;;;;;;;;;;5020637;28;5682;-62
2022/11/06 23:06:25;;;;;;;;;;;;;;;;;;5003991;28;1878;-61
2022/11/06 23:08:51;;;;;;;;;;;;;;;;;;5008695;28;5322;-62